sensor_id;sensor_type;location;lat;lon;timestamp;pressure;altitude;pressure_sealevel;temperature;humidity
52591;BME280;38483;42.620;25.394;2023-02-23T00:01:27;96897.50;;;8.47;70.38
52591;BME280;38483;42.620;25.394;2023-02-23T00:03:56;96906.78;;;8.51;69.55
52591;BME280;38483;42.620;25.394;2023-02-23T00:06:28;96898.91;;;8.54;68.69
52591;BME280;38483;42.620;25.394;2023-02-23T00:08:55;96907.34;;;8.57;69.21
52591;BME280;38483;42.620;25.394;2023-02-23T00:11:23;96900.47;;;8.58;68.08
52591;BME280;38483;42.620;25.394;2023-02-23T00:13:53;96901.28;;;8.38;68.09
52591;BME280;38483;42.620;25.394;2023-02-23T00:16:24;96902.69;;;8.45;69.25
52591;BME280;38483;42.620;25.394;2023-02-23T00:18:54;96900.88;;;8.47;68.07
52591;BME280;38483;42.620;25.394;2023-02-23T00:21:30;96908.22;;;8.58;68.60
52591;BME280;38483;42.620;25.394;2023-02-23T00:24:04;96900.59;;;8.55;67.88
52591;BME280;38483;42.620;25.394;2023-02-23T00:26:32;96911.31;;;8.66;67.60
52591;BME280;38483;42.620;25.394;2023-02-23T00:29:03;96909.22;;;8.54;66.84
52591;BME280;38483;42.620;25.394;2023-02-23T00:31:30;96901.91;;;8.43;68.36
52591;BME280;38483;42.620;25.394;2023-02-23T00:34:00;96905.59;;;8.38;68.60
52591;BME280;38483;42.620;25.394;2023-02-23T00:36:31;96911.34;;;8.21;68.79
52591;BME280;38483;42.620;25.394;2023-02-23T00:39:01;96890.78;;;8.19;68.46
52591;BME280;38483;42.620;25.394;2023-02-23T00:41:31;96864.50;;;7.88;68.54
52591;BME280;38483;42.620;25.394;2023-02-23T00:43:59;96901.13;;;8.19;68.79
52591;BME280;38483;42.620;25.394;2023-02-23T00:46:28;96906.53;;;8.12;68.87
52591;BME280;38483;42.620;25.394;2023-02-23T00:48:57;96906.97;;;8.01;68.57
52591;BME280;38483;42.620;25.394;2023-02-23T00:51:26;96911.06;;;8.07;68.61
52591;BME280;38483;42.620;25.394;2023-02-23T00:53:58;96904.34;;;8.03;68.54
52591;BME280;38483;42.620;25.394;2023-02-23T00:56:27;96913.09;;;7.99;67.92
52591;BME280;38483;42.620;25.394;2023-02-23T00:58:54;96900.25;;;7.97;69.11
52591;BME280;38483;42.620;25.394;2023-02-23T01:01:25;96902.78;;;7.99;67.45
52591;BME280;38483;42.620;25.394;2023-02-23T01:03:52;96905.81;;;7.87;69.05
52591;BME280;38483;42.620;25.394;2023-02-23T01:06:20;96895.66;;;7.82;69.05
52591;BME280;38483;42.620;25.394;2023-02-23T01:08:49;96901.38;;;7.90;68.46
52591;BME280;38483;42.620;25.394;2023-02-23T01:11:21;96904.63;;;7.95;68.17
52591;BME280;38483;42.620;25.394;2023-02-23T01:13:51;96908.78;;;7.99;68.59
52591;BME280;38483;42.620;25.394;2023-02-23T01:16:21;96906.84;;;7.81;69.56
52591;BME280;38483;42.620;25.394;2023-02-23T01:18:48;96908.78;;;7.53;70.63
52591;BME280;38483;42.620;25.394;2023-02-23T01:21:25;96905.09;;;7.60;70.71
52591;BME280;38483;42.620;25.394;2023-02-23T01:23:52;96902.75;;;7.54;70.94
52591;BME280;38483;42.620;25.394;2023-02-23T01:26:22;96899.47;;;7.72;70.35
52591;BME280;38483;42.620;25.394;2023-02-23T01:28:51;96908.38;;;7.87;69.84
52591;BME280;38483;42.620;25.394;2023-02-23T01:31:19;96904.63;;;7.95;68.30
52591;BME280;38483;42.620;25.394;2023-02-23T01:33:52;96901.59;;;7.84;68.28
52591;BME280;38483;42.620;25.394;2023-02-23T01:36:20;96901.69;;;7.81;67.19
52591;BME280;38483;42.620;25.394;2023-02-23T01:38:48;96898.16;;;7.62;68.66
52591;BME280;38483;42.620;25.394;2023-02-23T01:41:16;96894.09;;;7.78;67.31
52591;BME280;38483;42.620;25.394;2023-02-23T01:44:03;96915.28;;;7.63;66.66
52591;BME280;38483;42.620;25.394;2023-02-23T01:46:33;96908.44;;;7.62;67.34
52591;BME280;38483;42.620;25.394;2023-02-23T01:49:02;96907.97;;;7.51;66.90
52591;BME280;38483;42.620;25.394;2023-02-23T01:51:33;96910.41;;;7.56;67.07
52591;BME280;38483;42.620;25.394;2023-02-23T01:54:15;96901.75;;;7.57;67.72
52591;BME280;38483;42.620;25.394;2023-02-23T01:56:47;96903.28;;;7.39;67.90
52591;BME280;38483;42.620;25.394;2023-02-23T01:59:38;96914.22;;;7.46;67.69
52591;BME280;38483;42.620;25.394;2023-02-23T02:02:07;96905.94;;;7.36;68.24
52591;BME280;38483;42.620;25.394;2023-02-23T02:04:35;96905.59;;;7.22;68.13
52591;BME280;38483;42.620;25.394;2023-02-23T02:07:12;96886.22;;;6.87;69.65
52591;BME280;38483;42.620;25.394;2023-02-23T02:09:41;96911.75;;;6.67;70.09
52591;BME280;38483;42.620;25.394;2023-02-23T02:12:29;96908.16;;;6.46;71.90
52591;BME280;38483;42.620;25.394;2023-02-23T02:14:57;96907.75;;;6.58;72.15
52591;BME280;38483;42.620;25.394;2023-02-23T02:37:13;96917.25;;;6.29;75.20
52591;BME280;38483;42.620;25.394;2023-02-23T02:39:58;96913.00;;;6.00;76.61
52591;BME280;38483;42.620;25.394;2023-02-23T02:42:58;96920.59;;;6.05;77.20
52591;BME280;38483;42.620;25.394;2023-02-23T02:48:17;96910.63;;;5.94;77.54
52591;BME280;38483;42.620;25.394;2023-02-23T02:51:27;96915.75;;;5.94;77.05
52591;BME280;38483;42.620;25.394;2023-02-23T02:56:24;96903.44;;;5.76;77.91
52591;BME280;38483;42.620;25.394;2023-02-23T02:58:53;96913.72;;;6.05;77.30
52591;BME280;38483;42.620;25.394;2023-02-23T03:01:21;96914.03;;;6.22;76.09
52591;BME280;38483;42.620;25.394;2023-02-23T03:04:22;96915.59;;;6.28;76.20
52591;BME280;38483;42.620;25.394;2023-02-23T03:07:19;96918.38;;;6.20;77.42
52591;BME280;38483;42.620;25.394;2023-02-23T03:10:35;96922.53;;;6.26;77.09
52591;BME280;38483;42.620;25.394;2023-02-23T03:19:25;96919.16;;;6.50;76.09
52591;BME280;38483;42.620;25.394;2023-02-23T03:22:21;96927.25;;;6.66;74.92
52591;BME280;38483;42.620;25.394;2023-02-23T03:28:16;96927.94;;;5.89;77.74
52591;BME280;38483;42.620;25.394;2023-02-23T03:31:16;96925.66;;;5.77;76.90
52591;BME280;38483;42.620;25.394;2023-02-23T03:34:11;96938.66;;;5.71;77.57
52591;BME280;38483;42.620;25.394;2023-02-23T03:37:12;96946.25;;;5.75;77.33
52591;BME280;38483;42.620;25.394;2023-02-23T03:40:05;96944.78;;;5.67;77.32
52591;BME280;38483;42.620;25.394;2023-02-23T03:42:56;96938.41;;;5.51;77.25
52591;BME280;38483;42.620;25.394;2023-02-23T03:45:44;96920.53;;;5.48;77.58
52591;BME280;38483;42.620;25.394;2023-02-23T03:48:32;96946.59;;;5.33;78.07
52591;BME280;38483;42.620;25.394;2023-02-23T03:51:20;96949.53;;;5.19;78.55
52591;BME280;38483;42.620;25.394;2023-02-23T03:54:12;96950.63;;;5.11;78.78
52591;BME280;38483;42.620;25.394;2023-02-23T03:57:03;96944.63;;;5.10;78.65
52591;BME280;38483;42.620;25.394;2023-02-23T03:59:55;96949.84;;;5.07;79.62
52591;BME280;38483;42.620;25.394;2023-02-23T04:02:44;96949.19;;;5.01;80.23
52591;BME280;38483;42.620;25.394;2023-02-23T04:05:34;96936.72;;;4.85;80.57
52591;BME280;38483;42.620;25.394;2023-02-23T04:08:24;96934.53;;;5.04;80.29
52591;BME280;38483;42.620;25.394;2023-02-23T04:11:45;96943.31;;;4.95;80.36
52591;BME280;38483;42.620;25.394;2023-02-23T04:17:08;96938.34;;;5.22;80.67
52591;BME280;38483;42.620;25.394;2023-02-23T04:19:35;96936.34;;;5.33;79.96
52591;BME280;38483;42.620;25.394;2023-02-23T04:22:02;96933.00;;;5.60;78.74
52591;BME280;38483;42.620;25.394;2023-02-23T04:24:29;96934.16;;;5.79;77.30
52591;BME280;38483;42.620;25.394;2023-02-23T04:26:56;96933.63;;;5.99;76.07
52591;BME280;38483;42.620;25.394;2023-02-23T04:29:23;96941.38;;;5.97;76.78
52591;BME280;38483;42.620;25.394;2023-02-23T04:31:50;96932.66;;;5.72;77.23
52591;BME280;38483;42.620;25.394;2023-02-23T04:34:17;96935.22;;;5.72;78.14
52591;BME280;38483;42.620;25.394;2023-02-23T04:36:44;96945.59;;;5.69;77.91
52591;BME280;38483;42.620;25.394;2023-02-23T04:39:11;96933.38;;;5.46;79.07
52591;BME280;38483;42.620;25.394;2023-02-23T04:41:38;96939.03;;;5.59;79.11
52591;BME280;38483;42.620;25.394;2023-02-23T04:44:05;96939.00;;;5.60;78.30
52591;BME280;38483;42.620;25.394;2023-02-23T04:46:32;96940.63;;;5.63;79.19
52591;BME280;38483;42.620;25.394;2023-02-23T04:48:59;96945.59;;;5.69;78.07
52591;BME280;38483;42.620;25.394;2023-02-23T04:51:27;96947.84;;;5.79;76.79
52591;BME280;38483;42.620;25.394;2023-02-23T04:53:57;96946.59;;;5.94;75.28
52591;BME280;38483;42.620;25.394;2023-02-23T04:56:25;96947.69;;;5.87;74.75
52591;BME280;38483;42.620;25.394;2023-02-23T04:58:51;96948.06;;;6.03;74.50
52591;BME280;38483;42.620;25.394;2023-02-23T05:01:19;96940.84;;;5.86;74.03
52591;BME280;38483;42.620;25.394;2023-02-23T05:03:48;96944.22;;;5.88;74.25
52591;BME280;38483;42.620;25.394;2023-02-23T05:06:16;96939.97;;;5.87;74.21
52591;BME280;38483;42.620;25.394;2023-02-23T05:08:44;96944.66;;;6.02;74.27
52591;BME280;38483;42.620;25.394;2023-02-23T05:11:11;96942.97;;;6.01;73.32
52591;BME280;38483;42.620;25.394;2023-02-23T05:13:38;96947.56;;;6.19;73.60
52591;BME280;38483;42.620;25.394;2023-02-23T05:16:06;96956.94;;;6.22;73.96
52591;BME280;38483;42.620;25.394;2023-02-23T05:18:33;96950.00;;;6.24;73.72
52591;BME280;38483;42.620;25.394;2023-02-23T05:21:05;96962.53;;;6.34;72.74
52591;BME280;38483;42.620;25.394;2023-02-23T05:23:34;96951.81;;;6.20;71.63
52591;BME280;38483;42.620;25.394;2023-02-23T05:26:03;96957.41;;;6.33;71.16
52591;BME280;38483;42.620;25.394;2023-02-23T05:28:36;96964.94;;;6.40;71.16
52591;BME280;38483;42.620;25.394;2023-02-23T05:31:04;96965.13;;;6.33;70.59
52591;BME280;38483;42.620;25.394;2023-02-23T05:33:32;96973.69;;;6.33;70.65
52591;BME280;38483;42.620;25.394;2023-02-23T05:36:03;96958.78;;;6.44;69.71
52591;BME280;38483;42.620;25.394;2023-02-23T05:38:31;96989.22;;;6.58;69.41
52591;BME280;38483;42.620;25.394;2023-02-23T05:40:57;96993.44;;;6.61;68.95
52591;BME280;38483;42.620;25.394;2023-02-23T05:43:24;96988.34;;;6.31;69.43
52591;BME280;38483;42.620;25.394;2023-02-23T05:45:52;97005.16;;;6.41;69.39
52591;BME280;38483;42.620;25.394;2023-02-23T05:48:19;96998.91;;;6.50;68.89
52591;BME280;38483;42.620;25.394;2023-02-23T05:50:46;96989.06;;;6.35;69.81
52591;BME280;38483;42.620;25.394;2023-02-23T05:53:13;96996.84;;;6.33;70.58
52591;BME280;38483;42.620;25.394;2023-02-23T05:55:40;97014.22;;;6.25;70.55
52591;BME280;38483;42.620;25.394;2023-02-23T05:58:07;97011.78;;;5.92;72.49
52591;BME280;38483;42.620;25.394;2023-02-23T06:00:34;97007.41;;;5.95;72.93
52591;BME280;38483;42.620;25.394;2023-02-23T06:03:01;97028.91;;;6.22;72.93
52591;BME280;38483;42.620;25.394;2023-02-23T06:05:28;97024.25;;;6.34;72.35
52591;BME280;38483;42.620;25.394;2023-02-23T06:07:55;97026.97;;;6.57;72.21
52591;BME280;38483;42.620;25.394;2023-02-23T06:10:22;97034.47;;;6.65;71.64
52591;BME280;38483;42.620;25.394;2023-02-23T06:12:49;97035.47;;;6.59;71.84
52591;BME280;38483;42.620;25.394;2023-02-23T06:15:16;97019.91;;;6.36;73.30
52591;BME280;38483;42.620;25.394;2023-02-23T06:17:44;97033.78;;;6.31;74.25
52591;BME280;38483;42.620;25.394;2023-02-23T06:20:11;97040.19;;;6.47;74.63
52591;BME280;38483;42.620;25.394;2023-02-23T06:22:38;97038.78;;;6.65;74.46
52591;BME280;38483;42.620;25.394;2023-02-23T06:25:05;97041.47;;;6.60;75.34
52591;BME280;38483;42.620;25.394;2023-02-23T06:27:39;97043.47;;;6.80;74.75
52591;BME280;38483;42.620;25.394;2023-02-23T06:30:06;97040.31;;;6.98;73.05
52591;BME280;38483;42.620;25.394;2023-02-23T06:32:34;97045.25;;;7.30;72.88
52591;BME280;38483;42.620;25.394;2023-02-23T06:35:06;97051.47;;;7.49;71.67
52591;BME280;38483;42.620;25.394;2023-02-23T06:37:34;97056.72;;;7.71;70.82
52591;BME280;38483;42.620;25.394;2023-02-23T06:40:03;97051.41;;;7.77;70.03
52591;BME280;38483;42.620;25.394;2023-02-23T06:42:30;97056.94;;;7.89;69.83
52591;BME280;38483;42.620;25.394;2023-02-23T06:44:57;97058.63;;;7.90;70.01
52591;BME280;38483;42.620;25.394;2023-02-23T06:47:24;97060.06;;;7.74;69.78
52591;BME280;38483;42.620;25.394;2023-02-23T06:49:51;97053.13;;;7.52;72.19
52591;BME280;38483;42.620;25.394;2023-02-23T06:52:18;97058.00;;;7.59;71.09
52591;BME280;38483;42.620;25.394;2023-02-23T06:54:45;97039.31;;;7.79;71.84
52591;BME280;38483;42.620;25.394;2023-02-23T06:57:13;97063.50;;;8.22;70.10
52591;BME280;38483;42.620;25.394;2023-02-23T06:59:40;97054.34;;;8.39;68.86
52591;BME280;38483;42.620;25.394;2023-02-23T07:02:10;97050.00;;;8.39;69.35
52591;BME280;38483;42.620;25.394;2023-02-23T07:04:38;97057.47;;;8.47;69.87
52591;BME280;38483;42.620;25.394;2023-02-23T07:07:05;97062.72;;;8.67;68.88
52591;BME280;38483;42.620;25.394;2023-02-23T07:09:32;97065.63;;;8.81;68.82
52591;BME280;38483;42.620;25.394;2023-02-23T07:11:59;97045.31;;;8.72;69.85
52591;BME280;38483;42.620;25.394;2023-02-23T07:14:26;97058.78;;;9.01;68.94
52591;BME280;38483;42.620;25.394;2023-02-23T07:16:53;97059.16;;;9.14;68.63
52591;BME280;38483;42.620;25.394;2023-02-23T07:19:20;97058.22;;;9.37;67.93
52591;BME280;38483;42.620;25.394;2023-02-23T07:21:47;97058.31;;;9.55;67.02
52591;BME280;38483;42.620;25.394;2023-02-23T07:24:14;97059.59;;;9.45;67.34
52591;BME280;38483;42.620;25.394;2023-02-23T07:26:41;97059.34;;;9.71;66.85
52591;BME280;38483;42.620;25.394;2023-02-23T07:29:12;97051.78;;;9.67;66.71
52591;BME280;38483;42.620;25.394;2023-02-23T07:31:39;97042.78;;;9.75;66.47
52591;BME280;38483;42.620;25.394;2023-02-23T07:34:07;97061.97;;;10.12;66.17
52591;BME280;38483;42.620;25.394;2023-02-23T07:36:35;97060.00;;;10.17;65.55
52591;BME280;38483;42.620;25.394;2023-02-23T07:39:05;97062.50;;;10.18;65.73
52591;BME280;38483;42.620;25.394;2023-02-23T07:41:32;97059.22;;;10.15;65.89
52591;BME280;38483;42.620;25.394;2023-02-23T07:43:59;97051.53;;;9.93;65.93
52591;BME280;38483;42.620;25.394;2023-02-23T07:46:26;97057.66;;;9.91;66.60
52591;BME280;38483;42.620;25.394;2023-02-23T07:48:53;97071.50;;;10.10;66.46
52591;BME280;38483;42.620;25.394;2023-02-23T07:51:20;97060.00;;;10.17;65.52
52591;BME280;38483;42.620;25.394;2023-02-23T07:53:47;97071.53;;;10.28;65.67
52591;BME280;38483;42.620;25.394;2023-02-23T07:56:15;97067.44;;;10.43;65.70
52591;BME280;38483;42.620;25.394;2023-02-23T07:58:43;97074.16;;;10.65;65.06
52591;BME280;38483;42.620;25.394;2023-02-23T08:01:11;97068.09;;;10.48;65.09
52591;BME280;38483;42.620;25.394;2023-02-23T08:03:38;97079.72;;;10.19;66.14
52591;BME280;38483;42.620;25.394;2023-02-23T08:06:05;97085.44;;;10.06;66.76
52591;BME280;38483;42.620;25.394;2023-02-23T08:08:33;97079.91;;;10.15;66.30
52591;BME280;38483;42.620;25.394;2023-02-23T08:11:02;97082.84;;;10.46;65.36
52591;BME280;38483;42.620;25.394;2023-02-23T08:13:30;97077.38;;;10.52;65.12
52591;BME280;38483;42.620;25.394;2023-02-23T08:15:58;97072.00;;;10.56;64.69
52591;BME280;38483;42.620;25.394;2023-02-23T08:18:25;97086.84;;;10.53;65.11
52591;BME280;38483;42.620;25.394;2023-02-23T08:21:00;97052.84;;;10.02;66.13
52591;BME280;38483;42.620;25.394;2023-02-23T08:23:29;97082.19;;;10.41;65.50
52591;BME280;38483;42.620;25.394;2023-02-23T08:25:56;97071.78;;;10.24;65.90
52591;BME280;38483;42.620;25.394;2023-02-23T08:28:25;97083.41;;;10.34;66.02
52591;BME280;38483;42.620;25.394;2023-02-23T08:30:52;97074.31;;;10.04;66.54
52591;BME280;38483;42.620;25.394;2023-02-23T08:33:20;97092.56;;;10.41;66.40
52591;BME280;38483;42.620;25.394;2023-02-23T08:35:48;97087.97;;;10.66;65.13
52591;BME280;38483;42.620;25.394;2023-02-23T08:38:15;97067.03;;;10.52;65.19
52591;BME280;38483;42.620;25.394;2023-02-23T08:40:44;97086.44;;;10.81;64.94
52591;BME280;38483;42.620;25.394;2023-02-23T08:43:11;97082.09;;;11.00;64.01
52591;BME280;38483;42.620;25.394;2023-02-23T08:45:38;97073.81;;;11.10;63.88
52591;BME280;38483;42.620;25.394;2023-02-23T08:48:06;97079.31;;;11.21;63.86
52591;BME280;38483;42.620;25.394;2023-02-23T08:50:33;97081.00;;;11.22;63.11
52591;BME280;38483;42.620;25.394;2023-02-23T08:53:00;97081.44;;;10.95;63.51
52591;BME280;38483;42.620;25.394;2023-02-23T08:55:27;97074.38;;;11.17;62.95
52591;BME280;38483;42.620;25.394;2023-02-23T08:57:54;97068.84;;;11.41;62.96
52591;BME280;38483;42.620;25.394;2023-02-23T09:00:22;97091.84;;;11.66;61.77
52591;BME280;38483;42.620;25.394;2023-02-23T09:02:49;97083.34;;;11.45;61.73
52591;BME280;38483;42.620;25.394;2023-02-23T09:05:16;97080.56;;;11.67;61.47
52591;BME280;38483;42.620;25.394;2023-02-23T09:07:44;97083.25;;;11.83;61.36
52591;BME280;38483;42.620;25.394;2023-02-23T09:10:14;97079.50;;;11.88;60.33
52591;BME280;38483;42.620;25.394;2023-02-23T09:12:45;97072.47;;;11.90;60.32
52591;BME280;38483;42.620;25.394;2023-02-23T09:15:12;97062.94;;;11.74;60.05
52591;BME280;38483;42.620;25.394;2023-02-23T09:17:39;97020.41;;;11.59;59.74
52591;BME280;38483;42.620;25.394;2023-02-23T09:20:10;97081.84;;;11.93;60.15
52591;BME280;38483;42.620;25.394;2023-02-23T09:22:39;97085.13;;;11.26;61.73
52591;BME280;38483;42.620;25.394;2023-02-23T09:25:18;97082.44;;;11.64;61.37
52591;BME280;38483;42.620;25.394;2023-02-23T09:27:49;97087.81;;;11.78;61.25
52591;BME280;38483;42.620;25.394;2023-02-23T09:30:18;97089.38;;;11.97;60.24
52591;BME280;38483;42.620;25.394;2023-02-23T09:32:47;97081.84;;;11.76;61.17
52591;BME280;38483;42.620;25.394;2023-02-23T09:35:15;97089.56;;;11.94;60.73
52591;BME280;38483;42.620;25.394;2023-02-23T09:37:49;97081.50;;;11.65;60.56
52591;BME280;38483;42.620;25.394;2023-02-23T09:40:19;97088.44;;;11.83;60.04
52591;BME280;38483;42.620;25.394;2023-02-23T09:43:02;97086.44;;;11.88;60.49
52591;BME280;38483;42.620;25.394;2023-02-23T09:45:39;97075.97;;;11.72;60.50
52591;BME280;38483;42.620;25.394;2023-02-23T09:50:47;97061.84;;;11.95;60.27
52591;BME280;38483;42.620;25.394;2023-02-23T09:53:35;97069.78;;;12.09;60.33
52591;BME280;38483;42.620;25.394;2023-02-23T09:58:39;97073.69;;;12.33;59.32
52591;BME280;38483;42.620;25.394;2023-02-23T10:06:46;97061.38;;;12.69;58.05
52591;BME280;38483;42.620;25.394;2023-02-23T10:09:26;97070.16;;;12.67;58.26
52591;BME280;38483;42.620;25.394;2023-02-23T10:14:55;97072.59;;;12.21;59.85
52591;BME280;38483;42.620;25.394;2023-02-23T10:22:38;97056.63;;;12.45;60.30
52591;BME280;38483;42.620;25.394;2023-02-23T10:25:11;97063.69;;;12.58;58.97
52591;BME280;38483;42.620;25.394;2023-02-23T10:27:42;97056.19;;;12.69;59.64
52591;BME280;38483;42.620;25.394;2023-02-23T10:30:23;97059.16;;;12.62;59.46
52591;BME280;38483;42.620;25.394;2023-02-23T10:33:23;97047.44;;;12.86;58.98
52591;BME280;38483;42.620;25.394;2023-02-23T10:35:57;97048.47;;;12.99;58.60
52591;BME280;38483;42.620;25.394;2023-02-23T10:38:39;97033.03;;;12.80;58.78
52591;BME280;38483;42.620;25.394;2023-02-23T10:41:06;97041.84;;;12.93;58.47
52591;BME280;38483;42.620;25.394;2023-02-23T10:43:34;97043.19;;;12.85;59.45
52591;BME280;38483;42.620;25.394;2023-02-23T10:46:02;97043.34;;;12.97;58.81
52591;BME280;38483;42.620;25.394;2023-02-23T10:48:34;97030.09;;;13.02;58.46
52591;BME280;38483;42.620;25.394;2023-02-23T10:51:02;97028.00;;;12.93;58.79
52591;BME280;38483;42.620;25.394;2023-02-23T10:53:34;97043.94;;;12.87;58.86
52591;BME280;38483;42.620;25.394;2023-02-23T10:56:10;97039.06;;;12.81;59.76
52591;BME280;38483;42.620;25.394;2023-02-23T10:58:59;97039.91;;;12.81;59.49
52591;BME280;38483;42.620;25.394;2023-02-23T11:01:38;97040.25;;;12.91;59.07
52591;BME280;38483;42.620;25.394;2023-02-23T11:04:24;97036.06;;;13.20;58.23
52591;BME280;38483;42.620;25.394;2023-02-23T11:07:08;97040.63;;;13.46;57.84
52591;BME280;38483;42.620;25.394;2023-02-23T11:09:41;97041.09;;;13.23;58.01
52591;BME280;38483;42.620;25.394;2023-02-23T11:14:52;97011.16;;;13.16;58.97
52591;BME280;38483;42.620;25.394;2023-02-23T11:17:29;97032.06;;;13.44;58.28
52591;BME280;38483;42.620;25.394;2023-02-23T11:22:35;97024.00;;;13.19;59.06
52591;BME280;38483;42.620;25.394;2023-02-23T11:25:15;97021.81;;;13.11;59.54
52591;BME280;38483;42.620;25.394;2023-02-23T11:27:47;97025.50;;;13.23;60.11
52591;BME280;38483;42.620;25.394;2023-02-23T11:30:20;97018.94;;;13.31;59.55
52591;BME280;38483;42.620;25.394;2023-02-23T11:32:53;97019.19;;;13.27;59.82
52591;BME280;38483;42.620;25.394;2023-02-23T11:37:48;97027.16;;;13.24;59.50
52591;BME280;38483;42.620;25.394;2023-02-23T11:42:59;97008.03;;;13.25;59.06
52591;BME280;38483;42.620;25.394;2023-02-23T11:45:38;97013.72;;;13.61;58.70
52591;BME280;38483;42.620;25.394;2023-02-23T11:48:20;97021.19;;;13.37;59.46
52591;BME280;38483;42.620;25.394;2023-02-23T11:50:48;97017.28;;;13.15;60.85
52591;BME280;38483;42.620;25.394;2023-02-23T11:53:23;97023.72;;;13.23;60.79
52591;BME280;38483;42.620;25.394;2023-02-23T11:55:58;97021.09;;;13.39;60.56
52591;BME280;38483;42.620;25.394;2023-02-23T11:58:39;97025.69;;;13.49;60.10
52591;BME280;38483;42.620;25.394;2023-02-23T12:01:13;97030.88;;;13.04;61.78
52591;BME280;38483;42.620;25.394;2023-02-23T12:03:48;97017.44;;;13.12;61.25
52591;BME280;38483;42.620;25.394;2023-02-23T12:06:33;97024.59;;;13.53;60.23
52591;BME280;38483;42.620;25.394;2023-02-23T12:12:07;97029.59;;;12.80;62.80
52591;BME280;38483;42.620;25.394;2023-02-23T12:14:40;97008.75;;;13.13;61.85
52591;BME280;38483;42.620;25.394;2023-02-23T12:17:25;97025.75;;;12.87;62.36
52591;BME280;38483;42.620;25.394;2023-02-23T12:19:55;97035.16;;;13.05;62.01
52591;BME280;38483;42.620;25.394;2023-02-23T12:22:38;97019.78;;;12.85;62.40
52591;BME280;38483;42.620;25.394;2023-02-23T12:27:59;97022.13;;;12.89;62.61
52591;BME280;38483;42.620;25.394;2023-02-23T12:30:53;97021.75;;;13.13;62.68
52591;BME280;38483;42.620;25.394;2023-02-23T12:33:38;97016.09;;;13.20;61.44
52591;BME280;38483;42.620;25.394;2023-02-23T12:36:44;97015.28;;;12.73;62.79
52591;BME280;38483;42.620;25.394;2023-02-23T12:39:33;97042.44;;;12.67;63.16
52591;BME280;38483;42.620;25.394;2023-02-23T12:45:02;97041.34;;;12.71;63.20
52591;BME280;38483;42.620;25.394;2023-02-23T12:47:43;97044.31;;;12.48;63.74
52591;BME280;38483;42.620;25.394;2023-02-23T12:50:27;97035.38;;;12.85;62.82
52591;BME280;38483;42.620;25.394;2023-02-23T12:53:26;97038.22;;;12.80;63.09
52591;BME280;38483;42.620;25.394;2023-02-23T13:02:04;97041.75;;;12.79;63.70
52591;BME280;38483;42.620;25.394;2023-02-23T13:07:38;97051.75;;;12.71;63.99
52591;BME280;38483;42.620;25.394;2023-02-23T13:13:11;97058.19;;;12.95;61.89
52591;BME280;38483;42.620;25.394;2023-02-23T13:19:20;97039.91;;;12.97;62.42
52591;BME280;38483;42.620;25.394;2023-02-23T13:24:53;97039.03;;;12.50;63.07
52591;BME280;38483;42.620;25.394;2023-02-23T13:27:29;97064.22;;;12.65;63.60
52591;BME280;38483;42.620;25.394;2023-02-23T13:30:00;97057.94;;;12.69;62.88
52591;BME280;38483;42.620;25.394;2023-02-23T13:32:32;97050.31;;;12.81;63.05
52591;BME280;38483;42.620;25.394;2023-02-23T13:35:02;97050.13;;;12.84;62.97
52591;BME280;38483;42.620;25.394;2023-02-23T13:37:35;97084.44;;;12.91;62.95
52591;BME280;38483;42.620;25.394;2023-02-23T13:47:52;97069.53;;;12.46;64.60
52591;BME280;38483;42.620;25.394;2023-02-23T13:53:40;97059.81;;;12.34;65.31
52591;BME280;38483;42.620;25.394;2023-02-23T13:58:50;97066.84;;;12.32;65.49
52591;BME280;38483;42.620;25.394;2023-02-23T14:01:25;97055.63;;;12.47;65.30
52591;BME280;38483;42.620;25.394;2023-02-23T14:03:55;97061.31;;;12.38;64.91
52591;BME280;38483;42.620;25.394;2023-02-23T14:06:26;97063.81;;;12.24;65.34
52591;BME280;38483;42.620;25.394;2023-02-23T14:08:59;97068.69;;;12.30;65.63
52591;BME280;38483;42.620;25.394;2023-02-23T14:11:45;97069.16;;;12.37;65.00
52591;BME280;38483;42.620;25.394;2023-02-23T14:14:36;97078.03;;;12.33;65.48
52591;BME280;38483;42.620;25.394;2023-02-23T14:22:29;97072.38;;;12.09;65.84
52591;BME280;38483;42.620;25.394;2023-02-23T14:28:47;97082.16;;;11.87;66.72
52591;BME280;38483;42.620;25.394;2023-02-23T14:33:58;97088.44;;;11.83;67.19
52591;BME280;38483;42.620;25.394;2023-02-23T14:41:24;97078.28;;;11.42;68.02
52591;BME280;38483;42.620;25.394;2023-02-23T14:43:59;97079.38;;;11.56;68.56
52591;BME280;38483;42.620;25.394;2023-02-23T14:46:31;97099.28;;;11.55;68.41
52591;BME280;38483;42.620;25.394;2023-02-23T14:49:09;97086.78;;;11.63;67.80
52591;BME280;38483;42.620;25.394;2023-02-23T14:51:45;97083.38;;;11.44;68.29
52591;BME280;38483;42.620;25.394;2023-02-23T14:54:33;97082.91;;;11.36;68.20
52591;BME280;38483;42.620;25.394;2023-02-23T14:57:13;97090.47;;;11.40;68.35
52591;BME280;38483;42.620;25.394;2023-02-23T14:59:58;97071.56;;;11.38;68.06
52591;BME280;38483;42.620;25.394;2023-02-23T15:02:29;97101.94;;;11.72;67.50
52591;BME280;38483;42.620;25.394;2023-02-23T15:04:56;97087.00;;;11.41;67.96
52591;BME280;38483;42.620;25.394;2023-02-23T15:07:39;97115.38;;;11.26;68.29
52591;BME280;38483;42.620;25.394;2023-02-23T15:10:19;97101.75;;;11.04;69.27
52591;BME280;38483;42.620;25.394;2023-02-23T15:12:48;97117.03;;;11.10;69.39
52591;BME280;38483;42.620;25.394;2023-02-23T15:15:19;97111.13;;;11.25;68.70
52591;BME280;38483;42.620;25.394;2023-02-23T15:17:47;97113.09;;;11.20;69.08
52591;BME280;38483;42.620;25.394;2023-02-23T15:20:18;97109.13;;;11.30;68.53
52591;BME280;38483;42.620;25.394;2023-02-23T15:22:47;97107.91;;;11.01;68.92
52591;BME280;38483;42.620;25.394;2023-02-23T15:25:20;97128.06;;;11.13;69.14
52591;BME280;38483;42.620;25.394;2023-02-23T15:27:47;97108.19;;;10.95;69.79
52591;BME280;38483;42.620;25.394;2023-02-23T15:30:25;97147.16;;;10.94;69.60